WXM80 ListenWXM80 Stop

You find our weather info also at:

UK Metoffice

WeatherCloud

Weather Underground

Northeastern Weather Network

AWEKAS

Citizen Weather Observer Program (CWOP)

HAMweather, WeatherForYou, PWS Weather


Weather Underground History page Text

Daily Summary for November 14, 2017 Units:  Both    English   Metric
« Previous Day
Next Day »
Daily Weekly Monthly Yearly Custom
  High: Low: Average:
Temperature: 44.2 °F /  6.8 °C 39.5 °F /  4.2 °C 42.1 °F /  5.6 °C
Dew Point: 40.5 °F /  4.7 °C 35.8 °F /  2.1 °C 37.8 °F /  3.2 °C
Humidity: 91 % 77 % 85 %
Wind Speed: 8.6 mph /  13.8 km/h - 3.8 mph /  6.1 km/h
Wind Gust: 13.8 mph /  22.2 km/h - -
Wind:- - ENE
Pressure: 30.33 in /  1027 hPa 30.05 in /  1017.5 hPa -
Precipitation: 0.00 in /  0 mm    
Historical Graphs
 
 
Tabular Data for November 14, 2017
Time Temperature Dew Point Pressure Wind Wind Speed Wind Gust Humidity Rainfall Rate (Hourly)
00:02 41.1 °F /  5.1 °C 37.5 °F /  3.1 °C 30.27 in /  1024.9 hPa NNE 3.9 mph /  6.3 km/h 8.1 mph /  13 km/h 87 % 0.00 in /  0 mm
00:07 41.1 °F /  5.1 °C 37.5 °F /  3.1 °C 30.26 in /  1024.6 hPa NNE 5.9 mph /  9.5 km/h 9.2 mph /  14.8 km/h 87 % 0.00 in /  0 mm
00:12 41.0 °F /  5 °C 37.4 °F /  3 °C 30.27 in /  1024.9 hPa North 4.0 mph /  6.4 km/h 12.7 mph /  20.4 km/h 87 % 0.00 in /  0 mm
00:18 40.9 °F /  4.9 °C 37.3 °F /  2.9 °C 30.27 in /  1024.9 hPa North 3.7 mph /  6 km/h 5.8 mph /  9.3 km/h 87 % 0.00 in /  0 mm
00:23 40.8 °F /  4.9 °C 37.2 °F /  2.9 °C 30.26 in /  1024.6 hPa NNE 4.4 mph /  7.1 km/h 10.0 mph /  16.1 km/h 87 % 0.00 in /  0 mm
00:28 40.7 °F /  4.8 °C 37.1 °F /  2.8 °C 30.27 in /  1024.9 hPa NNE 6.0 mph /  9.7 km/h 8.1 mph /  13 km/h 87 % 0.00 in /  0 mm
00:33 40.6 °F /  4.8 °C 37.0 °F /  2.8 °C 30.28 in /  1025.3 hPa NNE 5.3 mph /  8.5 km/h 7.0 mph /  11.3 km/h 87 % 0.00 in /  0 mm
00:38 40.5 °F /  4.7 °C 36.9 °F /  2.7 °C 30.28 in /  1025.3 hPa NNE 4.7 mph /  7.6 km/h 6.9 mph /  11.1 km/h 87 % 0.00 in /  0 mm
00:43 40.4 °F /  4.7 °C 36.8 °F /  2.7 °C 30.28 in /  1025.3 hPa NNE 5.6 mph /  9 km/h 10.4 mph /  16.7 km/h 87 % 0.00 in /  0 mm
00:48 40.4 °F /  4.7 °C 37.1 °F /  2.8 °C 30.28 in /  1025.3 hPa NE 4.2 mph /  6.8 km/h 13.8 mph /  22.2 km/h 88 % 0.00 in /  0 mm
00:53 40.4 °F /  4.7 °C 36.8 °F /  2.7 °C 30.28 in /  1025.3 hPa ENE 2.2 mph /  3.5 km/h 8.1 mph /  13 km/h 87 % 0.00 in /  0 mm
00:58 40.3 °F /  4.6 °C 36.7 °F /  2.6 °C 30.28 in /  1025.3 hPa NNE 4.3 mph /  6.9 km/h 6.9 mph /  11.1 km/h 87 % 0.00 in /  0 mm
01:03 40.2 °F /  4.6 °C 36.6 °F /  2.6 °C 30.28 in /  1025.3 hPa NNE 7.0 mph /  11.3 km/h 11.5 mph /  18.5 km/h 87 % 0.00 in /  0 mm
01:08 40.1 °F /  4.5 °C 36.5 °F /  2.5 °C 30.28 in /  1025.3 hPa ENE 4.2 mph /  6.8 km/h 8.1 mph /  13 km/h 87 % 0.00 in /  0 mm
01:13 40.0 °F /  4.4 °C 36.4 °F /  2.4 °C 30.28 in /  1025.3 hPa NNE 4.1 mph /  6.6 km/h 8.1 mph /  13 km/h 87 % 0.00 in /  0 mm
01:18 39.9 °F /  4.4 °C 36.3 °F /  2.4 °C 30.28 in /  1025.3 hPa North 5.2 mph /  8.4 km/h 10.4 mph /  16.7 km/h 87 % 0.00 in /  0 mm
01:23 39.8 °F /  4.3 °C 36.5 °F /  2.5 °C 30.28 in /  1025.3 hPa NNW 4.1 mph /  6.6 km/h 8.1 mph /  13 km/h 88 % 0.00 in /  0 mm
01:28 39.8 °F /  4.3 °C 36.5 °F /  2.5 °C 30.28 in /  1025.3 hPa NNE 7.2 mph /  11.6 km/h 11.5 mph /  18.5 km/h 88 % 0.00 in /  0 mm
01:33 39.7 °F /  4.3 °C 36.4 °F /  2.4 °C 30.28 in /  1025.3 hPa NNW 4.7 mph /  7.6 km/h 10.0 mph /  16.1 km/h 88 % 0.00 in /  0 mm
01:38 39.7 °F /  4.3 °C 36.4 °F /  2.4 °C 30.28 in /  1025.3 hPa North 4.7 mph /  7.6 km/h 6.9 mph /  11.1 km/h 88 % 0.00 in /  0 mm
01:44 39.7 °F /  4.3 °C 36.4 °F /  2.4 °C 30.28 in /  1025.3 hPa NE 5.1 mph /  8.2 km/h 9.2 mph /  14.8 km/h 88 % 0.00 in /  0 mm
01:49 39.7 °F /  4.3 °C 36.4 °F /  2.4 °C 30.29 in /  1025.6 hPa NNE 3.4 mph /  5.5 km/h 6.9 mph /  11.1 km/h 88 % 0.00 in /  0 mm
01:55 39.7 °F /  4.3 °C 36.4 °F /  2.4 °C 30.29 in /  1025.6 hPa North 7.6 mph /  12.2 km/h 11.0 mph /  17.7 km/h 88 % 0.00 in /  0 mm
02:00 39.6 °F /  4.2 °C 36.0 °F /  2.2 °C 30.29 in /  1025.6 hPa NNE 4.0 mph /  6.4 km/h 10.4 mph /  16.7 km/h 87 % 0.00 in /  0 mm
02:05 39.6 °F /  4.2 °C 36.0 °F /  2.2 °C 30.29 in /  1025.6 hPa North 4.5 mph /  7.2 km/h 11.5 mph /  18.5 km/h 87 % 0.00 in /  0 mm
02:10 39.5 °F /  4.2 °C 36.2 °F /  2.3 °C 30.29 in /  1025.6 hPa North 6.3 mph /  10.1 km/h 11.5 mph /  18.5 km/h 88 % 0.00 in /  0 mm
02:20 39.6 °F /  4.2 °C 36.3 °F /  2.4 °C 30.29 in /  1025.6 hPa NNE 4.0 mph /  6.4 km/h 5.8 mph /  9.3 km/h 88 % 0.00 in /  0 mm
02:25 39.6 °F /  4.2 °C 36.6 °F /  2.6 °C 30.29 in /  1025.6 hPa NNE 1.9 mph /  3.1 km/h 5.8 mph /  9.3 km/h 89 % 0.00 in /  0 mm
02:30 39.6 °F /  4.2 °C 36.6 °F /  2.6 °C 30.29 in /  1025.6 hPa NE 2.8 mph /  4.5 km/h 10.4 mph /  16.7 km/h 89 % 0.00 in /  0 mm
02:35 39.6 °F /  4.2 °C 36.6 °F /  2.6 °C 30.27 in /  1024.9 hPa NE 2.5 mph /  4 km/h 6.9 mph /  11.1 km/h 89 % 0.00 in /  0 mm
02:40 39.6 °F /  4.2 °C 36.6 °F /  2.6 °C 30.27 in /  1024.9 hPa NNE 5.2 mph /  8.4 km/h 9.2 mph /  14.8 km/h 89 % 0.00 in /  0 mm
02:45 39.7 °F /  4.3 °C 36.7 °F /  2.6 °C 30.26 in /  1024.6 hPa ENE 5.0 mph /  8 km/h 8.0 mph /  12.9 km/h 89 % 0.00 in /  0 mm
02:50 39.7 °F /  4.3 °C 36.7 °F /  2.6 °C 30.27 in /  1024.9 hPa North 6.0 mph /  9.7 km/h 9.2 mph /  14.8 km/h 89 % 0.00 in /  0 mm
02:55 39.7 °F /  4.3 °C 36.7 °F /  2.6 °C 30.29 in /  1025.6 hPa NNE 4.7 mph /  7.6 km/h 8.1 mph /  13 km/h 89 % 0.00 in /  0 mm
03:00 39.7 °F /  4.3 °C 36.7 °F /  2.6 °C 30.27 in /  1024.9 hPa North 3.4 mph /  5.5 km/h 6.9 mph /  11.1 km/h 89 % 0.00 in /  0 mm
03:05 39.7 °F /  4.3 °C 36.7 °F /  2.6 °C 30.27 in /  1024.9 hPa NNE 5.0 mph /  8 km/h 11.5 mph /  18.5 km/h 89 % 0.00 in /  0 mm
03:15 39.7 °F /  4.3 °C 36.7 °F /  2.6 °C 30.27 in /  1024.9 hPa North 3.6 mph /  5.8 km/h 6.9 mph /  11.1 km/h 89 % 0.00 in /  0 mm
03:20 39.6 °F /  4.2 °C 36.6 °F /  2.6 °C 30.27 in /  1024.9 hPa North 4.1 mph /  6.6 km/h 4.1 mph /  6.6 km/h 89 % 0.00 in /  0 mm
03:26 39.6 °F /  4.2 °C 36.6 °F /  2.6 °C 30.28 in /  1025.3 hPa North 5.0 mph /  8 km/h 8.1 mph /  13 km/h 89 % 0.00 in /  0 mm
03:31 39.6 °F /  4.2 °C 36.6 °F /  2.6 °C 30.28 in /  1025.3 hPa North 6.0 mph /  9.7 km/h 9.0 mph /  14.5 km/h 89 % 0.00 in /  0 mm
03:36 39.6 °F /  4.2 °C 36.9 °F /  2.7 °C 30.28 in /  1025.3 hPa North 5.0 mph /  8 km/h 9.0 mph /  14.5 km/h 90 % 0.00 in /  0 mm
03:41 39.7 °F /  4.3 °C 37.0 °F /  2.8 °C 30.28 in /  1025.3 hPa North 3.0 mph /  4.8 km/h 8.0 mph /  12.9 km/h 90 % 0.00 in /  0 mm
03:46 39.7 °F /  4.3 °C 37.0 °F /  2.8 °C 30.28 in /  1025.3 hPa North 3.0 mph /  4.8 km/h 9.0 mph /  14.5 km/h 90 % 0.00 in /  0 mm
03:51 39.8 °F /  4.3 °C 37.1 °F /  2.8 °C 30.28 in /  1025.3 hPa North 5.0 mph /  8 km/h 7.0 mph /  11.3 km/h 90 % 0.00 in /  0 mm
03:56 39.8 °F /  4.3 °C 37.1 °F /  2.8 °C 30.29 in /  1025.6 hPa North 1.0 mph /  1.6 km/h 8.0 mph /  12.9 km/h 90 % 0.00 in /  0 mm
04:01 39.9 °F /  4.4 °C 37.2 °F /  2.9 °C 30.27 in /  1024.9 hPa North 4.8 mph /  7.7 km/h 8.1 mph /  13 km/h 90 % 0.00 in /  0 mm
04:06 39.9 °F /  4.4 °C 37.5 °F /  3.1 °C 30.28 in /  1025.3 hPa NNE 2.9 mph /  4.7 km/h 6.9 mph /  11.1 km/h 91 % 0.00 in /  0 mm
04:11 40.0 °F /  4.4 °C 37.6 °F /  3.1 °C 30.29 in /  1025.6 hPa NNE 5.0 mph /  8 km/h 8.1 mph /  13 km/h 91 % 0.00 in /  0 mm
04:16 40.0 °F /  4.4 °C 37.6 °F /  3.1 °C 30.29 in /  1025.6 hPa North 5.7 mph /  9.2 km/h 10.4 mph /  16.7 km/h 91 % 0.00 in /  0 mm
04:21 40.1 °F /  4.5 °C 37.7 °F /  3.2 °C 30.28 in /  1025.3 hPa North 4.1 mph /  6.6 km/h 5.8 mph /  9.3 km/h 91 % 0.00 in /  0 mm
04:26 40.2 °F /  4.6 °C 37.8 °F /  3.2 °C 30.29 in /  1025.6 hPa NNE 4.3 mph /  6.9 km/h 9.2 mph /  14.8 km/h 91 % 0.00 in /  0 mm
04:31 40.1 °F /  4.5 °C 37.4 °F /  3 °C 30.29 in /  1025.6 hPa NNE 4.2 mph /  6.8 km/h 5.8 mph /  9.3 km/h 90 % 0.00 in /  0 mm
04:36 40.2 °F /  4.6 °C 37.5 °F /  3.1 °C 30.29 in /  1025.6 hPa North 3.7 mph /  6 km/h 6.9 mph /  11.1 km/h 90 % 0.00 in /  0 mm
04:41 40.2 °F /  4.6 °C 37.5 °F /  3.1 °C 30.27 in /  1024.9 hPa NNE 3.6 mph /  5.8 km/h 5.0 mph /  8 km/h 90 % 0.00 in /  0 mm
04:46 40.3 °F /  4.6 °C 37.6 °F /  3.1 °C 30.27 in /  1024.9 hPa North 5.3 mph /  8.5 km/h 6.9 mph /  11.1 km/h 90 % 0.00 in /  0 mm
04:51 40.4 °F /  4.7 °C 37.7 °F /  3.2 °C 30.27 in /  1024.9 hPa NNE 4.0 mph /  6.4 km/h 6.9 mph /  11.1 km/h 90 % 0.00 in /  0 mm
04:56 40.4 °F /  4.7 °C 37.7 °F /  3.2 °C 30.27 in /  1024.9 hPa NNE 4.9 mph /  7.9 km/h 6.9 mph /  11.1 km/h 90 % 0.00 in /  0 mm
05:01 40.4 °F /  4.7 °C 37.7 °F /  3.2 °C 30.27 in /  1024.9 hPa NNE 4.8 mph /  7.7 km/h 9.2 mph /  14.8 km/h 90 % 0.00 in /  0 mm
05:06 40.5 °F /  4.7 °C 37.8 °F /  3.2 °C 30.27 in /  1024.9 hPa North 2.0 mph /  3.2 km/h 3.5 mph /  5.6 km/h 90 % 0.00 in /  0 mm
05:11 40.5 °F /  4.7 °C 38.1 °F /  3.4 °C 30.28 in /  1025.3 hPa North 5.6 mph /  9 km/h 9.2 mph /  14.8 km/h 91 % 0.00 in /  0 mm
05:16 40.6 °F /  4.8 °C 37.9 °F /  3.3 °C 30.28 in /  1025.3 hPa North 3.5 mph /  5.6 km/h 5.0 mph /  8 km/h 90 % 0.00 in /  0 mm
05:21 40.6 °F /  4.8 °C 38.2 °F /  3.4 °C 30.27 in /  1024.9 hPa NNE 3.9 mph /  6.3 km/h 5.0 mph /  8 km/h 91 % 0.00 in /  0 mm
05:26 40.7 °F /  4.8 °C 38.3 °F /  3.5 °C 30.27 in /  1024.9 hPa NE 2.1 mph /  3.4 km/h 4.6 mph /  7.4 km/h 91 % 0.00 in /  0 mm
05:31 40.7 °F /  4.8 °C 38.3 °F /  3.5 °C 30.26 in /  1024.6 hPa NNE 5.1 mph /  8.2 km/h 10.0 mph /  16.1 km/h 91 % 0.00 in /  0 mm
05:36 40.8 °F /  4.9 °C 38.4 °F /  3.6 °C 30.27 in /  1024.9 hPa NE 3.1 mph /  5 km/h 6.9 mph /  11.1 km/h 91 % 0.00 in /  0 mm
05:41 40.9 °F /  4.9 °C 38.5 °F /  3.6 °C 30.27 in /  1024.9 hPa NNE 1.3 mph /  2.1 km/h 3.5 mph /  5.6 km/h 91 % 0.00 in /  0 mm
05:46 40.9 °F /  4.9 °C 38.5 °F /  3.6 °C 30.27 in /  1024.9 hPa North 5.0 mph /  8 km/h 8.1 mph /  13 km/h 91 % 0.00 in /  0 mm
05:51 41.0 °F /  5 °C 38.3 °F /  3.5 °C 30.27 in /  1024.9 hPa NNE 5.2 mph /  8.4 km/h 9.0 mph /  14.5 km/h 90 % 0.00 in /  0 mm
05:56 41.0 °F /  5 °C 38.3 °F /  3.5 °C 30.27 in /  1024.9 hPa NNE 5.0 mph /  8 km/h 10.0 mph /  16.1 km/h 90 % 0.00 in /  0 mm
06:01 41.1 °F /  5.1 °C 38.4 °F /  3.6 °C 30.27 in /  1024.9 hPa NNE 1.9 mph /  3.1 km/h 6.9 mph /  11.1 km/h 90 % 0.00 in /  0 mm
06:06 41.1 °F /  5.1 °C 38.4 °F /  3.6 °C 30.27 in /  1024.9 hPa NNE 4.0 mph /  6.4 km/h 5.8 mph /  9.3 km/h 90 % 0.00 in /  0 mm
06:11 41.2 °F /  5.1 °C 38.2 °F /  3.4 °C 30.27 in /  1024.9 hPa North 3.0 mph /  4.8 km/h 5.0 mph /  8 km/h 89 % 0.00 in /  0 mm
06:16 41.2 °F /  5.1 °C 38.2 °F /  3.4 °C 30.27 in /  1024.9 hPa North 8.6 mph /  13.8 km/h 11.5 mph /  18.5 km/h 89 % 0.00 in /  0 mm
06:21 41.3 °F /  5.2 °C 38.3 °F /  3.5 °C 30.27 in /  1024.9 hPa North 5.7 mph /  9.2 km/h 6.9 mph /  11.1 km/h 89 % 0.00 in /  0 mm
06:26 41.3 °F /  5.2 °C 38.3 °F /  3.5 °C 30.28 in /  1025.3 hPa NE 2.9 mph /  4.7 km/h 6.0 mph /  9.7 km/h 89 % 0.00 in /  0 mm
06:31 41.4 °F /  5.2 °C 38.7 °F /  3.7 °C 30.28 in /  1025.3 hPa NNE 1.0 mph /  1.6 km/h 3.5 mph /  5.6 km/h 90 % 0.00 in /  0 mm
06:36 41.4 °F /  5.2 °C 38.7 °F /  3.7 °C 30.28 in /  1025.3 hPa NNE 4.7 mph /  7.6 km/h 8.1 mph /  13 km/h 90 % 0.00 in /  0 mm
06:41 41.4 °F /  5.2 °C 38.4 °F /  3.6 °C 30.28 in /  1025.3 hPa NNE 2.4 mph /  3.9 km/h 3.5 mph /  5.6 km/h 89 % 0.00 in /  0 mm
06:46 41.5 °F /  5.3 °C 38.5 °F /  3.6 °C 30.28 in /  1025.3 hPa NE 4.8 mph /  7.7 km/h 8.1 mph /  13 km/h 89 % 0.00 in /  0 mm
06:51 41.5 °F /  5.3 °C 38.5 °F /  3.6 °C 30.28 in /  1025.3 hPa NNE 2.5 mph /  4 km/h 5.0 mph /  8 km/h 89 % 0.00 in /  0 mm
06:56 41.5 °F /  5.3 °C 38.5 °F /  3.6 °C 30.28 in /  1025.3 hPa NNE 1.7 mph /  2.7 km/h 4.6 mph /  7.4 km/h 89 % 0.00 in /  0 mm
07:01 41.6 °F /  5.3 °C 38.6 °F /  3.7 °C 30.28 in /  1025.3 hPa NNE 5.1 mph /  8.2 km/h 9.2 mph /  14.8 km/h 89 % 0.00 in /  0 mm
07:06 41.6 °F /  5.3 °C 38.6 °F /  3.7 °C 30.28 in /  1025.3 hPa NE 4.0 mph /  6.4 km/h 4.0 mph /  6.4 km/h 89 % 0.00 in /  0 mm
07:17 41.7 °F /  5.4 °C 38.4 °F /  3.6 °C 30.29 in /  1025.6 hPa NNE 5.3 mph /  8.5 km/h 10.4 mph /  16.7 km/h 88 % 0.00 in /  0 mm
07:22 41.8 °F /  5.4 °C 38.5 °F /  3.6 °C 30.29 in /  1025.6 hPa NE 3.0 mph /  4.8 km/h 10.4 mph /  16.7 km/h 88 % 0.00 in /  0 mm
07:32 41.9 °F /  5.5 °C 38.6 °F /  3.7 °C 30.29 in /  1025.6 hPa NNE 4.6 mph /  7.4 km/h 8.1 mph /  13 km/h 88 % 0.00 in /  0 mm
07:37 41.9 °F /  5.5 °C 38.6 °F /  3.7 °C 30.30 in /  1026 hPa ENE 3.1 mph /  5 km/h 6.9 mph /  11.1 km/h 88 % 0.00 in /  0 mm
07:42 41.9 °F /  5.5 °C 38.6 °F /  3.7 °C 30.30 in /  1026 hPa North 5.2 mph /  8.4 km/h 11.5 mph /  18.5 km/h 88 % 0.00 in /  0 mm
07:47 42.0 °F /  5.6 °C 38.4 °F /  3.6 °C 30.30 in /  1026 hPa NNE 6.6 mph /  10.6 km/h 10.4 mph /  16.7 km/h 87 % 0.00 in /  0 mm
07:52 42.0 °F /  5.6 °C 38.4 °F /  3.6 °C 30.30 in /  1026 hPa North 3.2 mph /  5.1 km/h 6.0 mph /  9.7 km/h 87 % 0.00 in /  0 mm
07:57 42.0 °F /  5.6 °C 38.4 °F /  3.6 °C 30.30 in /  1026 hPa North 2.9 mph /  4.7 km/h 5.8 mph /  9.3 km/h 87 % 0.00 in /  0 mm
08:02 42.1 °F /  5.6 °C 38.5 °F /  3.6 °C 30.30 in /  1026 hPa NNE 5.9 mph /  9.5 km/h 8.1 mph /  13 km/h 87 % 0.00 in /  0 mm
08:07 42.1 °F /  5.6 °C 38.5 °F /  3.6 °C 30.30 in /  1026 hPa NNE 5.5 mph /  8.9 km/h 8.1 mph /  13 km/h 87 % 0.00 in /  0 mm
08:12 42.2 °F /  5.7 °C 38.6 °F /  3.7 °C 30.30 in /  1026 hPa NE 5.2 mph /  8.4 km/h 7.0 mph /  11.3 km/h 87 % 0.00 in /  0 mm
08:17 42.3 °F /  5.7 °C 38.7 °F /  3.7 °C 30.30 in /  1026 hPa North 4.4 mph /  7.1 km/h 8.0 mph /  12.9 km/h 87 % 0.00 in /  0 mm
08:22 42.3 °F /  5.7 °C 38.7 °F /  3.7 °C 30.30 in /  1026 hPa North 4.5 mph /  7.2 km/h 6.9 mph /  11.1 km/h 87 % 0.00 in /  0 mm
08:27 42.4 °F /  5.8 °C 38.8 °F /  3.8 °C 30.30 in /  1026 hPa NNE 4.7 mph /  7.6 km/h 6.9 mph /  11.1 km/h 87 % 0.00 in /  0 mm
08:37 42.5 °F /  5.8 °C 38.9 °F /  3.8 °C 30.30 in /  1026 hPa NE 2.9 mph /  4.7 km/h 5.8 mph /  9.3 km/h 87 % 0.00 in /  0 mm
08:42 42.6 °F /  5.9 °C 39.0 °F /  3.9 °C 30.30 in /  1026 hPa North 2.7 mph /  4.3 km/h 5.8 mph /  9.3 km/h 87 % 0.00 in /  0 mm
08:47 42.6 °F /  5.9 °C 39.3 °F /  4.1 °C 30.30 in /  1026 hPa NE 4.9 mph /  7.9 km/h 6.9 mph /  11.1 km/h 88 % 0.00 in /  0 mm
08:52 42.7 °F /  5.9 °C 39.4 °F /  4.1 °C 30.30 in /  1026 hPa NE 3.6 mph /  5.8 km/h 6.9 mph /  11.1 km/h 88 % 0.00 in /  0 mm
08:57 42.8 °F /  6 °C 39.5 °F /  4.2 °C 30.30 in /  1026 hPa East 4.1 mph /  6.6 km/h 6.0 mph /  9.7 km/h 88 % 0.00 in /  0 mm
09:02 42.9 °F /  6.1 °C 39.6 °F /  4.2 °C 30.30 in /  1026 hPa NNE 5.3 mph /  8.5 km/h 9.2 mph /  14.8 km/h 88 % 0.00 in /  0 mm
09:07 42.9 °F /  6.1 °C 39.6 °F /  4.2 °C 30.30 in /  1026 hPa ENE 5.1 mph /  8.2 km/h 7.0 mph /  11.3 km/h 88 % 0.00 in /  0 mm
09:12 43.1 °F /  6.2 °C 39.8 °F /  4.3 °C 30.30 in /  1026 hPa NE 2.5 mph /  4 km/h 4.6 mph /  7.4 km/h 88 % 0.00 in /  0 mm
09:17 43.1 °F /  6.2 °C 39.8 °F /  4.3 °C 30.30 in /  1026 hPa North 2.8 mph /  4.5 km/h 6.9 mph /  11.1 km/h 88 % 0.00 in /  0 mm
09:19 43.1 °F /  6.2 °C 39.8 °F /  4.3 °C 30.30 in /  1026 hPa North 4.1 mph /  6.6 km/h 9.2 mph /  14.8 km/h 88 % 0.00 in /  0 mm
09:25 43.2 °F /  6.2 °C 39.9 °F /  4.4 °C 30.30 in /  1026 hPa NE 4.4 mph /  7.1 km/h 8.1 mph /  13 km/h 88 % 0.00 in /  0 mm
09:30 43.2 °F /  6.2 °C 39.9 °F /  4.4 °C 30.30 in /  1026 hPa North 1.9 mph /  3.1 km/h 4.6 mph /  7.4 km/h 88 % 0.00 in /  0 mm
09:35 43.2 °F /  6.2 °C 39.9 °F /  4.4 °C 30.31 in /  1026.3 hPa North 1.8 mph /  2.9 km/h 6.9 mph /  11.1 km/h 88 % 0.00 in /  0 mm
09:40 43.2 °F /  6.2 °C 40.2 °F /  4.6 °C 30.30 in /  1026 hPa ENE 2.9 mph /  4.7 km/h 9.2 mph /  14.8 km/h 89 % 0.00 in /  0 mm
09:45 43.2 °F /  6.2 °C 40.2 °F /  4.6 °C 30.30 in /  1026 hPa North 6.0 mph /  9.7 km/h 8.1 mph /  13 km/h 89 % 0.00 in /  0 mm
09:50 43.2 °F /  6.2 °C 40.2 °F /  4.6 °C 30.31 in /  1026.3 hPa NNE 4.8 mph /  7.7 km/h 7.0 mph /  11.3 km/h 89 % 0.00 in /  0 mm
09:55 43.2 °F /  6.2 °C 40.2 °F /  4.6 °C 30.30 in /  1026 hPa NE 3.6 mph /  5.8 km/h 6.9 mph /  11.1 km/h 89 % 0.00 in /  0 mm
10:00 43.2 °F /  6.2 °C 40.2 °F /  4.6 °C 30.31 in /  1026.3 hPa North 6.0 mph /  9.7 km/h 9.2 mph /  14.8 km/h 89 % 0.00 in /  0 mm
10:05 43.2 °F /  6.2 °C 40.2 °F /  4.6 °C 30.31 in /  1026.3 hPa East 5.3 mph /  8.5 km/h 8.1 mph /  13 km/h 89 % 0.00 in /  0 mm
10:10 43.1 °F /  6.2 °C 40.1 °F /  4.5 °C 30.31 in /  1026.3 hPa NNE 2.6 mph /  4.2 km/h 5.0 mph /  8 km/h 89 % 0.00 in /  0 mm
10:15 43.1 °F /  6.2 °C 40.4 °F /  4.7 °C 30.30 in /  1026 hPa NNE 1.6 mph /  2.6 km/h 4.6 mph /  7.4 km/h 90 % 0.00 in /  0 mm
10:20 43.2 °F /  6.2 °C 40.5 °F /  4.7 °C 30.30 in /  1026 hPa NNE 4.1 mph /  6.6 km/h 8.1 mph /  13 km/h 90 % 0.00 in /  0 mm
10:25 43.1 °F /  6.2 °C 40.4 °F /  4.7 °C 30.30 in /  1026 hPa NNE 3.4 mph /  5.5 km/h 6.9 mph /  11.1 km/h 90 % 0.00 in /  0 mm
10:30 43.1 °F /  6.2 °C 40.4 °F /  4.7 °C 30.30 in /  1026 hPa NNE 3.5 mph /  5.6 km/h 7.0 mph /  11.3 km/h 90 % 0.00 in /  0 mm
10:35 43.1 °F /  6.2 °C 40.4 °F /  4.7 °C 30.30 in /  1026 hPa NNE 4.1 mph /  6.6 km/h 8.0 mph /  12.9 km/h 90 % 0.00 in /  0 mm
10:40 43.0 °F /  6.1 °C 40.3 °F /  4.6 °C 30.30 in /  1026 hPa North 2.6 mph /  4.2 km/h 4.6 mph /  7.4 km/h 90 % 0.00 in /  0 mm
10:45 43.0 °F /  6.1 °C 40.3 °F /  4.6 °C 30.30 in /  1026 hPa North 3.5 mph /  5.6 km/h 6.9 mph /  11.1 km/h 90 % 0.00 in /  0 mm
10:50 43.0 °F /  6.1 °C 40.3 °F /  4.6 °C 30.29 in /  1025.6 hPa NNE 6.0 mph /  9.7 km/h 12.0 mph /  19.3 km/h 90 % 0.00 in /  0 mm
10:56 43.0 °F /  6.1 °C 40.3 °F /  4.6 °C 30.30 in /  1026 hPa NNE 5.0 mph /  8 km/h 8.0 mph /  12.9 km/h 90 % 0.00 in /  0 mm
11:01 43.0 °F /  6.1 °C 40.3 °F /  4.6 °C 30.29 in /  1025.6 hPa North 3.7 mph /  6 km/h 6.0 mph /  9.7 km/h 90 % 0.00 in /  0 mm
11:06 43.0 °F /  6.1 °C 40.3 °F /  4.6 °C 30.33 in /  1027 hPa North 2.7 mph /  4.3 km/h 4.6 mph /  7.4 km/h 90 % 0.00 in /  0 mm
11:11 43.0 °F /  6.1 °C 40.3 °F /  4.6 °C 30.33 in /  1027 hPa NNE 6.6 mph /  10.6 km/h 10.4 mph /  16.7 km/h 90 % 0.00 in /  0 mm
11:16 43.0 °F /  6.1 °C 40.3 °F /  4.6 °C 30.33 in /  1027 hPa ENE 2.8 mph /  4.5 km/h 9.0 mph /  14.5 km/h 90 % 0.00 in /  0 mm
11:21 43.0 °F /  6.1 °C 40.3 °F /  4.6 °C 30.33 in /  1027 hPa ENE 3.5 mph /  5.6 km/h 6.9 mph /  11.1 km/h 90 % 0.00 in /  0 mm
11:26 43.0 °F /  6.1 °C 40.3 °F /  4.6 °C 30.33 in /  1027 hPa NE 1.2 mph /  1.9 km/h 3.5 mph /  5.6 km/h 90 % 0.00 in /  0 mm
11:31 43.0 °F /  6.1 °C 40.3 °F /  4.6 °C 30.32 in /  1026.6 hPa NNE 3.9 mph /  6.3 km/h 6.9 mph /  11.1 km/h 90 % 0.00 in /  0 mm
11:36 43.0 °F /  6.1 °C 40.3 °F /  4.6 °C 30.32 in /  1026.6 hPa NE 1.4 mph /  2.3 km/h 4.6 mph /  7.4 km/h 90 % 0.00 in /  0 mm
11:41 43.0 °F /  6.1 °C 40.3 °F /  4.6 °C 30.32 in /  1026.6 hPa North 1.4 mph /  2.3 km/h 3.0 mph /  4.8 km/h 90 % 0.00 in /  0 mm
11:46 43.0 °F /  6.1 °C 40.3 °F /  4.6 °C 30.32 in /  1026.6 hPa ENE 3.7 mph /  6 km/h 6.9 mph /  11.1 km/h 90 % 0.00 in /  0 mm
11:51 42.9 °F /  6.1 °C 39.9 °F /  4.4 °C 30.29 in /  1025.6 hPa ENE 3.6 mph /  5.8 km/h 5.0 mph /  8 km/h 89 % 0.00 in /  0 mm
11:56 42.9 °F /  6.1 °C 39.9 °F /  4.4 °C 30.32 in /  1026.6 hPa NE 3.7 mph /  6 km/h 7.0 mph /  11.3 km/h 89 % 0.00 in /  0 mm
12:01 42.9 °F /  6.1 °C 39.9 °F /  4.4 °C 30.32 in /  1026.6 hPa NNE 2.7 mph /  4.3 km/h 5.8 mph /  9.3 km/h 89 % 0.00 in /  0 mm
12:06 42.9 °F /  6.1 °C 40.2 °F /  4.6 °C 30.29 in /  1025.6 hPa ENE 2.7 mph /  4.3 km/h 5.0 mph /  8 km/h 90 % 0.00 in /  0 mm
12:11 42.9 °F /  6.1 °C 39.9 °F /  4.4 °C 30.32 in /  1026.6 hPa East 3.7 mph /  6 km/h 6.9 mph /  11.1 km/h 89 % 0.00 in /  0 mm
12:16 43.0 °F /  6.1 °C 40.0 °F /  4.4 °C 30.32 in /  1026.6 hPa NNE 2.3 mph /  3.7 km/h 4.6 mph /  7.4 km/h 89 % 0.00 in /  0 mm
12:21 43.0 °F /  6.1 °C 40.0 °F /  4.4 °C 30.32 in /  1026.6 hPa NE 0.8 mph /  1.3 km/h 3.5 mph /  5.6 km/h 89 % 0.00 in /  0 mm
12:26 43.1 °F /  6.2 °C 40.1 °F /  4.5 °C 30.28 in /  1025.3 hPa ENE 3.6 mph /  5.8 km/h 5.8 mph /  9.3 km/h 89 % 0.00 in /  0 mm
12:31 43.1 °F /  6.2 °C 40.1 °F /  4.5 °C 30.27 in /  1024.9 hPa ENE 2.8 mph /  4.5 km/h 3.5 mph /  5.6 km/h 89 % 0.00 in /  0 mm
12:36 43.1 °F /  6.2 °C 40.1 °F /  4.5 °C 30.27 in /  1024.9 hPa NE 5.2 mph /  8.4 km/h 7.0 mph /  11.3 km/h 89 % 0.00 in /  0 mm
12:38 43.1 °F /  6.2 °C 39.8 °F /  4.3 °C 30.27 in /  1024.9 hPa ENE 4.2 mph /  6.8 km/h 8.1 mph /  13 km/h 88 % 0.00 in /  0 mm
12:43 43.1 °F /  6.2 °C 39.8 °F /  4.3 °C 30.27 in /  1024.9 hPa ENE 2.8 mph /  4.5 km/h 8.1 mph /  13 km/h 88 % 0.00 in /  0 mm
12:48 43.2 °F /  6.2 °C 39.9 °F /  4.4 °C 30.27 in /  1024.9 hPa NNE 1.8 mph /  2.9 km/h 6.0 mph /  9.7 km/h 88 % 0.00 in /  0 mm
12:53 43.2 °F /  6.2 °C 39.9 °F /  4.4 °C 30.27 in /  1024.9 hPa ENE 1.4 mph /  2.3 km/h 3.5 mph /  5.6 km/h 88 % 0.00 in /  0 mm
12:58 43.3 °F /  6.3 °C 40.0 °F /  4.4 °C 30.27 in /  1024.9 hPa NNE 4.7 mph /  7.6 km/h 8.1 mph /  13 km/h 88 % 0.00 in /  0 mm
13:03 43.4 °F /  6.3 °C 40.1 °F /  4.5 °C 30.26 in /  1024.6 hPa ENE 6.0 mph /  9.7 km/h 8.1 mph /  13 km/h 88 % 0.00 in /  0 mm
13:08 43.4 °F /  6.3 °C 39.8 °F /  4.3 °C 30.27 in /  1024.9 hPa NE 3.5 mph /  5.6 km/h 4.6 mph /  7.4 km/h 87 % 0.00 in /  0 mm
13:13 43.5 °F /  6.4 °C 39.9 °F /  4.4 °C 30.27 in /  1024.9 hPa NNE 3.5 mph /  5.6 km/h 9.2 mph /  14.8 km/h 87 % 0.00 in /  0 mm
13:18 43.5 °F /  6.4 °C 39.9 °F /  4.4 °C 30.26 in /  1024.6 hPa NNE 2.7 mph /  4.3 km/h 5.8 mph /  9.3 km/h 87 % 0.00 in /  0 mm
13:23 43.6 °F /  6.4 °C 39.7 °F /  4.3 °C 30.26 in /  1024.6 hPa North 2.6 mph /  4.2 km/h 6.9 mph /  11.1 km/h 86 % 0.00 in /  0 mm
13:29 43.7 °F /  6.5 °C 39.8 °F /  4.3 °C 30.27 in /  1024.9 hPa NNE 2.6 mph /  4.2 km/h 6.9 mph /  11.1 km/h 86 % 0.00 in /  0 mm
13:34 43.8 °F /  6.6 °C 39.6 °F /  4.2 °C 30.27 in /  1024.9 hPa NNE 3.4 mph /  5.5 km/h 8.1 mph /  13 km/h 85 % 0.00 in /  0 mm
13:39 43.8 °F /  6.6 °C 39.6 °F /  4.2 °C 30.27 in /  1024.9 hPa NE 3.4 mph /  5.5 km/h 6.9 mph /  11.1 km/h 85 % 0.00 in /  0 mm
13:44 43.9 °F /  6.6 °C 39.7 °F /  4.3 °C 30.27 in /  1024.9 hPa NNW 4.9 mph /  7.9 km/h 11.5 mph /  18.5 km/h 85 % 0.00 in /  0 mm
13:49 43.9 °F /  6.6 °C 39.7 °F /  4.3 °C 30.26 in /  1024.6 hPa ENE 2.4 mph /  3.9 km/h 10.4 mph /  16.7 km/h 85 % 0.00 in /  0 mm
13:54 43.8 °F /  6.6 °C 39.6 °F /  4.2 °C 30.27 in /  1024.9 hPa NNE 3.6 mph /  5.8 km/h 8.0 mph /  12.9 km/h 85 % 0.00 in /  0 mm
13:59 43.8 °F /  6.6 °C 39.3 °F /  4.1 °C 30.27 in /  1024.9 hPa NNE 4.1 mph /  6.6 km/h 9.2 mph /  14.8 km/h 84 % 0.00 in /  0 mm
14:04 43.9 °F /  6.6 °C 39.4 °F /  4.1 °C 30.26 in /  1024.6 hPa NNE 4.2 mph /  6.8 km/h 9.0 mph /  14.5 km/h 84 % 0.00 in /  0 mm
14:09 43.8 °F /  6.6 °C 39.0 °F /  3.9 °C 30.25 in /  1024.3 hPa ENE 4.6 mph /  7.4 km/h 10.4 mph /  16.7 km/h 83 % 0.00 in /  0 mm
14:14 44.0 °F /  6.7 °C 39.2 °F /  4 °C 30.26 in /  1024.6 hPa NNE 2.4 mph /  3.9 km/h 5.8 mph /  9.3 km/h 83 % 0.00 in /  0 mm
14:19 44.0 °F /  6.7 °C 39.2 °F /  4 °C 30.26 in /  1024.6 hPa North 4.1 mph /  6.6 km/h 6.0 mph /  9.7 km/h 83 % 0.00 in /  0 mm
14:21 44.1 °F /  6.7 °C 39.2 °F /  4 °C 30.26 in /  1024.6 hPa NE 5.0 mph /  8 km/h 9.0 mph /  14.5 km/h 83 % 0.00 in /  0 mm
14:26 44.1 °F /  6.7 °C 39.3 °F /  4.1 °C 30.26 in /  1024.6 hPa NE 2.0 mph /  3.2 km/h 7.0 mph /  11.3 km/h 83 % 0.00 in /  0 mm
14:31 44.2 °F /  6.8 °C 39.1 °F /  3.9 °C 30.28 in /  1025.3 hPa NE 5.0 mph /  8 km/h 7.0 mph /  11.3 km/h 82 % 0.00 in /  0 mm
14:36 44.1 °F /  6.7 °C 38.6 °F /  3.7 °C 30.27 in /  1024.9 hPa ENE 6.0 mph /  9.7 km/h 10.0 mph /  16.1 km/h 81 % 0.00 in /  0 mm
14:41 44.0 °F /  6.7 °C 38.5 °F /  3.6 °C 30.27 in /  1024.9 hPa ENE 3.0 mph /  4.8 km/h 10.0 mph /  16.1 km/h 81 % 0.00 in /  0 mm
14:46 43.9 °F /  6.6 °C 38.4 °F /  3.6 °C 30.27 in /  1024.9 hPa NE 3.0 mph /  4.8 km/h 12.0 mph /  19.3 km/h 81 % 0.00 in /  0 mm
14:51 43.8 °F /  6.6 °C 38.3 °F /  3.5 °C 30.27 in /  1024.9 hPa ENE 5.0 mph /  8 km/h 12.0 mph /  19.3 km/h 81 % 0.00 in /  0 mm
14:56 43.7 °F /  6.5 °C 38.3 °F /  3.5 °C 30.28 in /  1025.3 hPa ENE 3.0 mph /  4.8 km/h 9.0 mph /  14.5 km/h 81 % 0.00 in /  0 mm
15:01 43.6 °F /  6.4 °C 38.2 °F /  3.4 °C 30.28 in /  1025.3 hPa NE 6.0 mph /  9.7 km/h 8.1 mph /  13 km/h 81 % 0.00 in /  0 mm
15:06 43.6 °F /  6.4 °C 38.5 °F /  3.6 °C 30.27 in /  1024.9 hPa NE 2.0 mph /  3.2 km/h 9.0 mph /  14.5 km/h 82 % 0.00 in /  0 mm
15:11 43.6 °F /  6.4 °C 38.8 °F /  3.8 °C 30.28 in /  1025.3 hPa NNE 5.0 mph /  8 km/h 9.0 mph /  14.5 km/h 83 % 0.00 in /  0 mm
15:16 43.6 °F /  6.4 °C 38.8 °F /  3.8 °C 30.28 in /  1025.3 hPa NNE 2.0 mph /  3.2 km/h 6.0 mph /  9.7 km/h 83 % 0.00 in /  0 mm
15:21 43.6 °F /  6.4 °C 38.5 °F /  3.6 °C 30.27 in /  1024.9 hPa NE 2.0 mph /  3.2 km/h 7.0 mph /  11.3 km/h 82 % 0.00 in /  0 mm
15:26 43.5 °F /  6.4 °C 38.4 °F /  3.6 °C 30.28 in /  1025.3 hPa NE 5.0 mph /  8 km/h 10.0 mph /  16.1 km/h 82 % 0.00 in /  0 mm
15:31 43.4 °F /  6.3 °C 38.0 °F /  3.3 °C 30.27 in /  1024.9 hPa ENE 6.0 mph /  9.7 km/h 10.0 mph /  16.1 km/h 81 % 0.00 in /  0 mm
15:36 43.3 °F /  6.3 °C 37.9 °F /  3.3 °C 30.27 in /  1024.9 hPa ENE 5.0 mph /  8 km/h 9.0 mph /  14.5 km/h 81 % 0.00 in /  0 mm
15:41 43.2 °F /  6.2 °C 37.8 °F /  3.2 °C 30.27 in /  1024.9 hPa ENE 3.0 mph /  4.8 km/h 8.0 mph /  12.9 km/h 81 % 0.00 in /  0 mm
15:46 43.2 °F /  6.2 °C 37.7 °F /  3.2 °C 30.28 in /  1025.3 hPa ENE 3.0 mph /  4.8 km/h 9.0 mph /  14.5 km/h 81 % 0.00 in /  0 mm
15:51 43.1 °F /  6.2 °C 37.7 °F /  3.2 °C 30.28 in /  1025.3 hPa ENE 1.0 mph /  1.6 km/h 5.0 mph /  8 km/h 81 % 0.00 in /  0 mm
15:56 43.1 °F /  6.2 °C 37.7 °F /  3.2 °C 30.28 in /  1025.3 hPa NE 2.0 mph /  3.2 km/h 7.0 mph /  11.3 km/h 81 % 0.00 in /  0 mm
16:01 43.1 °F /  6.2 °C 37.7 °F /  3.2 °C 30.27 in /  1024.9 hPa ENE 2.7 mph /  4.3 km/h 6.9 mph /  11.1 km/h 81 % 0.00 in /  0 mm
16:06 43.0 °F /  6.1 °C 37.6 °F /  3.1 °C 30.27 in /  1024.9 hPa North 3.8 mph /  6.1 km/h 6.0 mph /  9.7 km/h 81 % 0.00 in /  0 mm
16:11 43.0 °F /  6.1 °C 37.9 °F /  3.3 °C 30.27 in /  1024.9 hPa ENE 2.0 mph /  3.2 km/h 7.0 mph /  11.3 km/h 82 % 0.00 in /  0 mm
16:16 43.0 °F /  6.1 °C 37.9 °F /  3.3 °C 30.27 in /  1024.9 hPa NE 3.0 mph /  4.8 km/h 7.0 mph /  11.3 km/h 82 % 0.00 in /  0 mm
16:21 43.0 °F /  6.1 °C 38.2 °F /  3.4 °C 30.27 in /  1024.9 hPa NNE 6.0 mph /  9.7 km/h 9.0 mph /  14.5 km/h 83 % 0.00 in /  0 mm
16:26 43.0 °F /  6.1 °C 38.2 °F /  3.4 °C 30.27 in /  1024.9 hPa NNE 3.0 mph /  4.8 km/h 7.0 mph /  11.3 km/h 83 % 0.00 in /  0 mm
16:31 43.0 °F /  6.1 °C 37.9 °F /  3.3 °C 30.27 in /  1024.9 hPa NNE 4.2 mph /  6.8 km/h 6.9 mph /  11.1 km/h 82 % 0.00 in /  0 mm
16:36 43.0 °F /  6.1 °C 38.2 °F /  3.4 °C 30.27 in /  1024.9 hPa North 2.5 mph /  4 km/h 4.0 mph /  6.4 km/h 83 % 0.00 in /  0 mm
16:41 42.9 °F /  6.1 °C 37.8 °F /  3.2 °C 30.28 in /  1025.3 hPa NNE 5.0 mph /  8 km/h 7.0 mph /  11.3 km/h 82 % 0.00 in /  0 mm
16:46 42.9 °F /  6.1 °C 37.8 °F /  3.2 °C 30.27 in /  1024.9 hPa NNE 1.1 mph /  1.8 km/h 3.5 mph /  5.6 km/h 82 % 0.00 in /  0 mm
16:51 42.9 °F /  6.1 °C 37.8 °F /  3.2 °C 30.28 in /  1025.3 hPa NNE 2.0 mph /  3.2 km/h 7.0 mph /  11.3 km/h 82 % 0.00 in /  0 mm
16:56 42.9 °F /  6.1 °C 37.5 °F /  3.1 °C 30.28 in /  1025.3 hPa NNE 2.0 mph /  3.2 km/h 7.0 mph /  11.3 km/h 81 % 0.00 in /  0 mm
17:01 42.8 °F /  6 °C 37.4 °F /  3 °C 30.27 in /  1024.9 hPa ENE 2.3 mph /  3.7 km/h 3.5 mph /  5.6 km/h 81 % 0.00 in /  0 mm
17:06 42.8 °F /  6 °C 37.4 °F /  3 °C 30.28 in /  1025.3 hPa NE 2.3 mph /  3.7 km/h 5.8 mph /  9.3 km/h 81 % 0.00 in /  0 mm
17:11 42.8 °F /  6 °C 37.4 °F /  3 °C 30.28 in /  1025.3 hPa NE 3.9 mph /  6.3 km/h 5.0 mph /  8 km/h 81 % 0.00 in /  0 mm
17:16 42.8 °F /  6 °C 37.4 °F /  3 °C 30.28 in /  1025.3 hPa NNE 2.1 mph /  3.4 km/h 4.6 mph /  7.4 km/h 81 % 0.00 in /  0 mm
17:21 42.8 °F /  6 °C 37.4 °F /  3 °C 30.28 in /  1025.3 hPa ENE 3.3 mph /  5.3 km/h 6.9 mph /  11.1 km/h 81 % 0.00 in /  0 mm
17:26 42.8 °F /  6 °C 37.1 °F /  2.8 °C 30.28 in /  1025.3 hPa NNE 1.6 mph /  2.6 km/h 5.8 mph /  9.3 km/h 80 % 0.00 in /  0 mm
17:36 42.8 °F /  6 °C 37.4 °F /  3 °C 30.28 in /  1025.3 hPa NNE 3.4 mph /  5.5 km/h 6.9 mph /  11.1 km/h 81 % 0.00 in /  0 mm
17:41 42.8 °F /  6 °C 37.1 °F /  2.8 °C 30.28 in /  1025.3 hPa North 5.8 mph /  9.3 km/h 8.1 mph /  13 km/h 80 % 0.00 in /  0 mm
17:46 42.8 °F /  6 °C 36.7 °F /  2.6 °C 30.28 in /  1025.3 hPa North 5.3 mph /  8.5 km/h 9.2 mph /  14.8 km/h 79 % 0.00 in /  0 mm
17:51 42.8 °F /  6 °C 36.7 °F /  2.6 °C 30.28 in /  1025.3 hPa North 1.7 mph /  2.7 km/h 3.5 mph /  5.6 km/h 79 % 0.00 in /  0 mm
17:56 42.7 °F /  5.9 °C 36.6 °F /  2.6 °C 30.29 in /  1025.6 hPa NNE 3.9 mph /  6.3 km/h 6.9 mph /  11.1 km/h 79 % 0.00 in /  0 mm
18:01 42.7 °F /  5.9 °C 36.3 °F /  2.4 °C 30.28 in /  1025.3 hPa NNE 3.0 mph /  4.8 km/h 5.8 mph /  9.3 km/h 78 % 0.00 in /  0 mm
18:06 42.7 °F /  5.9 °C 36.3 °F /  2.4 °C 30.29 in /  1025.6 hPa NNE 4.9 mph /  7.9 km/h 6.0 mph /  9.7 km/h 78 % 0.00 in /  0 mm
18:11 42.7 °F /  5.9 °C 36.3 °F /  2.4 °C 30.29 in /  1025.6 hPa NNE 3.7 mph /  6 km/h 6.9 mph /  11.1 km/h 78 % 0.00 in /  0 mm
18:16 42.7 °F /  5.9 °C 36.3 °F /  2.4 °C 30.29 in /  1025.6 hPa ENE 2.8 mph /  4.5 km/h 4.6 mph /  7.4 km/h 78 % 0.00 in /  0 mm
18:21 42.7 °F /  5.9 °C 36.3 °F /  2.4 °C 30.29 in /  1025.6 hPa NNE 3.0 mph /  4.8 km/h 5.8 mph /  9.3 km/h 78 % 0.00 in /  0 mm
18:27 42.8 °F /  6 °C 36.4 °F /  2.4 °C 30.29 in /  1025.6 hPa ENE 1.4 mph /  2.3 km/h 3.5 mph /  5.6 km/h 78 % 0.00 in /  0 mm
18:32 42.7 °F /  5.9 °C 36.3 °F /  2.4 °C 30.29 in /  1025.6 hPa NE 4.0 mph /  6.4 km/h 5.0 mph /  8 km/h 78 % 0.00 in /  0 mm
18:37 42.7 °F /  5.9 °C 36.3 °F /  2.4 °C 30.29 in /  1025.6 hPa NNE 1.2 mph /  1.9 km/h 3.5 mph /  5.6 km/h 78 % 0.00 in /  0 mm
18:42 42.7 °F /  5.9 °C 36.3 °F /  2.4 °C 30.29 in /  1025.6 hPa NNE 2.6 mph /  4.2 km/h 6.9 mph /  11.1 km/h 78 % 0.00 in /  0 mm
18:47 42.7 °F /  5.9 °C 36.3 °F /  2.4 °C 30.29 in /  1025.6 hPa NNE 3.2 mph /  5.1 km/h 5.8 mph /  9.3 km/h 78 % 0.00 in /  0 mm
18:52 42.7 °F /  5.9 °C 36.0 °F /  2.2 °C 30.29 in /  1025.6 hPa NNE 1.4 mph /  2.3 km/h 5.0 mph /  8 km/h 77 % 0.00 in /  0 mm
18:57 42.7 °F /  5.9 °C 36.3 °F /  2.4 °C 30.29 in /  1025.6 hPa North 1.4 mph /  2.3 km/h 4.0 mph /  6.4 km/h 78 % 0.00 in /  0 mm
19:02 42.7 °F /  5.9 °C 36.3 °F /  2.4 °C 30.29 in /  1025.6 hPa North 3.6 mph /  5.8 km/h 6.9 mph /  11.1 km/h 78 % 0.00 in /  0 mm
19:07 42.6 °F /  5.9 °C 35.9 °F /  2.2 °C 30.29 in /  1025.6 hPa North 4.7 mph /  7.6 km/h 8.1 mph /  13 km/h 77 % 0.00 in /  0 mm
19:12 42.6 °F /  5.9 °C 35.9 °F /  2.2 °C 30.29 in /  1025.6 hPa NNE 5.8 mph /  9.3 km/h 8.1 mph /  13 km/h 77 % 0.00 in /  0 mm
19:17 42.6 °F /  5.9 °C 35.9 °F /  2.2 °C 30.29 in /  1025.6 hPa North 4.6 mph /  7.4 km/h 9.2 mph /  14.8 km/h 77 % 0.00 in /  0 mm
19:22 42.6 °F /  5.9 °C 35.9 °F /  2.2 °C 30.28 in /  1025.3 hPa NNE 6.0 mph /  9.7 km/h 8.1 mph /  13 km/h 77 % 0.00 in /  0 mm
19:27 42.6 °F /  5.9 °C 35.9 °F /  2.2 °C 30.29 in /  1025.6 hPa North 2.8 mph /  4.5 km/h 3.5 mph /  5.6 km/h 77 % 0.00 in /  0 mm
19:32 42.6 °F /  5.9 °C 35.9 °F /  2.2 °C 30.28 in /  1025.3 hPa NE 2.7 mph /  4.3 km/h 5.8 mph /  9.3 km/h 77 % 0.00 in /  0 mm
19:37 42.5 °F /  5.8 °C 35.8 °F /  2.1 °C 30.28 in /  1025.3 hPa NNE 0.9 mph /  1.4 km/h 8.1 mph /  13 km/h 77 % 0.00 in /  0 mm
19:42 42.5 °F /  5.8 °C 35.8 °F /  2.1 °C 30.28 in /  1025.3 hPa North 5.4 mph /  8.7 km/h 8.1 mph /  13 km/h 77 % 0.00 in /  0 mm
19:47 42.5 °F /  5.8 °C 35.8 °F /  2.1 °C 30.28 in /  1025.3 hPa NE 4.4 mph /  7.1 km/h 5.8 mph /  9.3 km/h 77 % 0.00 in /  0 mm
19:53 42.5 °F /  5.8 °C 35.8 °F /  2.1 °C 30.28 in /  1025.3 hPa NNE 4.2 mph /  6.8 km/h 9.2 mph /  14.8 km/h 77 % 0.00 in /  0 mm
19:58 42.5 °F /  5.8 °C 35.8 °F /  2.1 °C 30.29 in /  1025.6 hPa NNE 3.8 mph /  6.1 km/h 7.0 mph /  11.3 km/h 77 % 0.00 in /  0 mm
20:03 42.5 °F /  5.8 °C 35.8 °F /  2.1 °C 30.29 in /  1025.6 hPa NE 3.0 mph /  4.8 km/h 8.1 mph /  13 km/h 77 % 0.00 in /  0 mm
20:08 42.5 °F /  5.8 °C 35.8 °F /  2.1 °C 30.29 in /  1025.6 hPa ENE 3.1 mph /  5 km/h 4.6 mph /  7.4 km/h 77 % 0.00 in /  0 mm
20:13 42.5 °F /  5.8 °C 36.1 °F /  2.3 °C 30.28 in /  1025.3 hPa NE 3.4 mph /  5.5 km/h 6.9 mph /  11.1 km/h 78 % 0.00 in /  0 mm
20:18 42.5 °F /  5.8 °C 36.1 °F /  2.3 °C 30.29 in /  1025.6 hPa NE 2.2 mph /  3.5 km/h 8.1 mph /  13 km/h 78 % 0.00 in /  0 mm
20:23 42.5 °F /  5.8 °C 36.1 °F /  2.3 °C 30.29 in /  1025.6 hPa NNE 3.5 mph /  5.6 km/h 8.1 mph /  13 km/h 78 % 0.00 in /  0 mm
20:28 42.5 °F /  5.8 °C 36.1 °F /  2.3 °C 30.29 in /  1025.6 hPa ENE 4.2 mph /  6.8 km/h 8.1 mph /  13 km/h 78 % 0.00 in /  0 mm
20:33 42.5 °F /  5.8 °C 36.1 °F /  2.3 °C 30.31 in /  1026.3 hPa ENE 4.1 mph /  6.6 km/h 5.8 mph /  9.3 km/h 78 % 0.00 in /  0 mm
20:38 42.5 °F /  5.8 °C 36.1 °F /  2.3 °C 30.30 in /  1026 hPa ENE 4.6 mph /  7.4 km/h 8.1 mph /  13 km/h 78 % 0.00 in /  0 mm
20:48 42.5 °F /  5.8 °C 36.1 °F /  2.3 °C 30.31 in /  1026.3 hPa NE 3.6 mph /  5.8 km/h 7.0 mph /  11.3 km/h 78 % 0.00 in /  0 mm
20:53 42.4 °F /  5.8 °C 36.0 °F /  2.2 °C 30.30 in /  1026 hPa NE 5.1 mph /  8.2 km/h 8.1 mph /  13 km/h 78 % 0.00 in /  0 mm
20:58 42.4 °F /  5.8 °C 36.0 °F /  2.2 °C 30.31 in /  1026.3 hPa East 3.8 mph /  6.1 km/h 9.0 mph /  14.5 km/h 78 % 0.00 in /  0 mm
21:03 42.4 °F /  5.8 °C 36.0 °F /  2.2 °C 30.31 in /  1026.3 hPa NE 3.3 mph /  5.3 km/h 5.8 mph /  9.3 km/h 78 % 0.00 in /  0 mm
21:08 42.4 °F /  5.8 °C 36.3 °F /  2.4 °C 30.31 in /  1026.3 hPa East 4.3 mph /  6.9 km/h 9.0 mph /  14.5 km/h 79 % 0.00 in /  0 mm
21:13 42.3 °F /  5.7 °C 35.9 °F /  2.2 °C 30.30 in /  1026 hPa NE 3.6 mph /  5.8 km/h 8.1 mph /  13 km/h 78 % 0.00 in /  0 mm
21:18 42.3 °F /  5.7 °C 36.3 °F /  2.4 °C 30.30 in /  1026 hPa NNE 1.9 mph /  3.1 km/h 4.6 mph /  7.4 km/h 79 % 0.00 in /  0 mm
21:23 42.2 °F /  5.7 °C 36.2 °F /  2.3 °C 30.30 in /  1026 hPa ENE 4.7 mph /  7.6 km/h 8.1 mph /  13 km/h 79 % 0.00 in /  0 mm
21:28 42.2 °F /  5.7 °C 36.2 °F /  2.3 °C 30.30 in /  1026 hPa North 2.6 mph /  4.2 km/h 8.1 mph /  13 km/h 79 % 0.00 in /  0 mm
21:33 42.1 °F /  5.6 °C 36.1 °F /  2.3 °C 30.30 in /  1026 hPa NE 3.2 mph /  5.1 km/h 6.9 mph /  11.1 km/h 79 % 0.00 in /  0 mm
21:38 42.1 °F /  5.6 °C 36.1 °F /  2.3 °C 30.30 in /  1026 hPa ENE 3.9 mph /  6.3 km/h 8.1 mph /  13 km/h 79 % 0.00 in /  0 mm
21:43 42.0 °F /  5.6 °C 36.0 °F /  2.2 °C 30.30 in /  1026 hPa ENE 4.0 mph /  6.4 km/h 8.1 mph /  13 km/h 79 % 0.00 in /  0 mm
21:48 42.0 °F /  5.6 °C 36.0 °F /  2.2 °C 30.30 in /  1026 hPa NE 2.8 mph /  4.5 km/h 5.0 mph /  8 km/h 79 % 0.00 in /  0 mm
21:53 42.0 °F /  5.6 °C 36.0 °F /  2.2 °C 30.30 in /  1026 hPa East 3.5 mph /  5.6 km/h 7.0 mph /  11.3 km/h 79 % 0.00 in /  0 mm
21:58 42.0 °F /  5.6 °C 36.3 °F /  2.4 °C 30.30 in /  1026 hPa NE 2.8 mph /  4.5 km/h 4.6 mph /  7.4 km/h 80 % 0.00 in /  0 mm
22:03 41.9 °F /  5.5 °C 35.9 °F /  2.2 °C 30.30 in /  1026 hPa ENE 3.8 mph /  6.1 km/h 5.8 mph /  9.3 km/h 79 % 0.00 in /  0 mm
22:08 41.9 °F /  5.5 °C 36.2 °F /  2.3 °C 30.30 in /  1026 hPa NE 2.0 mph /  3.2 km/h 5.8 mph /  9.3 km/h 80 % 0.00 in /  0 mm
22:15 41.9 °F /  5.5 °C 36.2 °F /  2.3 °C 30.30 in /  1026 hPa NE 3.3 mph /  5.3 km/h 6.0 mph /  9.7 km/h 80 % 0.00 in /  0 mm
22:20 41.9 °F /  5.5 °C 36.5 °F /  2.5 °C 30.29 in /  1025.6 hPa North 2.9 mph /  4.7 km/h 6.0 mph /  9.7 km/h 81 % 0.00 in /  0 mm
22:23 41.8 °F /  5.4 °C 36.4 °F /  2.4 °C 30.05 in /  1017.5 hPa NE 4.4 mph /  7.1 km/h 9.2 mph /  14.8 km/h 81 % 0.00 in /  0 mm
22:25 41.8 °F /  5.4 °C 36.4 °F /  2.4 °C 30.29 in /  1025.6 hPa NE 4.9 mph /  7.9 km/h 6.9 mph /  11.1 km/h 81 % 0.00 in /  0 mm
22:26 41.8 °F /  5.4 °C 36.4 °F /  2.4 °C 30.29 in /  1025.6 hPa ENE 4.0 mph /  6.4 km/h 7.0 mph /  11.3 km/h 81 % 0.00 in /  0 mm
22:28 41.8 °F /  5.4 °C 36.4 °F /  2.4 °C 30.29 in /  1025.6 hPa ENE 4.9 mph /  7.9 km/h 9.2 mph /  14.8 km/h 81 % 0.00 in /  0 mm
22:33 41.8 °F /  5.4 °C 36.4 °F /  2.4 °C 30.29 in /  1025.6 hPa ENE 2.1 mph /  3.4 km/h 6.0 mph /  9.7 km/h 81 % 0.00 in /  0 mm
22:38 41.8 °F /  5.4 °C 36.1 °F /  2.3 °C 30.29 in /  1025.6 hPa East 5.5 mph /  8.9 km/h 6.0 mph /  9.7 km/h 80 % 0.00 in /  0 mm
22:43 41.9 °F /  5.5 °C 36.5 °F /  2.5 °C 30.30 in /  1026 hPa ENE 3.9 mph /  6.3 km/h 9.0 mph /  14.5 km/h 81 % 0.00 in /  0 mm
22:48 41.9 °F /  5.5 °C 36.2 °F /  2.3 °C 30.30 in /  1026 hPa ENE 3.2 mph /  5.1 km/h 8.1 mph /  13 km/h 80 % 0.00 in /  0 mm
22:53 41.9 °F /  5.5 °C 36.5 °F /  2.5 °C 30.29 in /  1025.6 hPa East 3.6 mph /  5.8 km/h 8.0 mph /  12.9 km/h 81 % 0.00 in /  0 mm
22:58 41.9 °F /  5.5 °C 36.5 °F /  2.5 °C 30.29 in /  1025.6 hPa ENE 2.3 mph /  3.7 km/h 4.6 mph /  7.4 km/h 81 % 0.00 in /  0 mm
23:03 41.9 °F /  5.5 °C 36.5 °F /  2.5 °C 30.29 in /  1025.6 hPa ENE 2.2 mph /  3.5 km/h 3.5 mph /  5.6 km/h 81 % 0.00 in /  0 mm
23:08 41.9 °F /  5.5 °C 36.5 °F /  2.5 °C 30.29 in /  1025.6 hPa NE 3.8 mph /  6.1 km/h 7.0 mph /  11.3 km/h 81 % 0.00 in /  0 mm
23:13 42.0 °F /  5.6 °C 36.6 °F /  2.6 °C 30.29 in /  1025.6 hPa ENE 6.4 mph /  10.3 km/h 9.2 mph /  14.8 km/h 81 % 0.00 in /  0 mm
23:18 42.0 °F /  5.6 °C 36.6 °F /  2.6 °C 30.29 in /  1025.6 hPa North 3.6 mph /  5.8 km/h 6.9 mph /  11.1 km/h 81 % 0.00 in /  0 mm
23:23 41.9 °F /  5.5 °C 36.5 °F /  2.5 °C 30.29 in /  1025.6 hPa NNE 4.9 mph /  7.9 km/h 9.2 mph /  14.8 km/h 81 % 0.00 in /  0 mm
23:28 41.9 °F /  5.5 °C 36.5 °F /  2.5 °C 30.29 in /  1025.6 hPa NNE 4.8 mph /  7.7 km/h 6.9 mph /  11.1 km/h 81 % 0.00 in /  0 mm
23:33 41.9 °F /  5.5 °C 36.8 °F /  2.7 °C 30.30 in /  1026 hPa ENE 5.3 mph /  8.5 km/h 8.1 mph /  13 km/h 82 % 0.00 in /  0 mm
23:38 41.8 °F /  5.4 °C 36.7 °F /  2.6 °C 30.30 in /  1026 hPa ENE 3.4 mph /  5.5 km/h 7.0 mph /  11.3 km/h 82 % 0.00 in /  0 mm
23:43 41.9 °F /  5.5 °C 36.8 °F /  2.7 °C 30.29 in /  1025.6 hPa ENE 6.0 mph /  9.7 km/h 9.2 mph /  14.8 km/h 82 % 0.00 in /  0 mm
23:48 41.9 °F /  5.5 °C 36.8 °F /  2.7 °C 30.29 in /  1025.6 hPa ENE 3.5 mph /  5.6 km/h 5.8 mph /  9.3 km/h 82 % 0.00 in /  0 mm
23:53 41.9 °F /  5.5 °C 36.5 °F /  2.5 °C 30.29 in /  1025.6 hPa ENE 6.1 mph /  9.8 km/h 10.4 mph /  16.7 km/h 81 % 0.00 in /  0 mm
23:58 41.9 °F /  5.5 °C 36.8 °F /  2.7 °C 30.29 in /  1025.6 hPa ENE 5.3 mph /  8.5 km/h 9.2 mph /  14.8 km/h 82 % 0.00 in /  0 mm
Crab Meadow Weather
Compliments of Weather Underground - 3 mb

Script developed by  Jim McMurry - jmcmurry@mwt.net Adapted for the template by  Wim van der Kuil - Leuven-Template.eu

Wind Chill: Everyone has noticed that in winter it seems colder when the wind is blowing. Mothers recognize this and tell their children to wear more clothes. The question the children ask is how much more clothes. Mothers answer very precisely because Mothers know everything. For the rest of us, wind chill calculations are the basis for determining the effect of wind on body heat loss. The wind chill equivalent temperature equation is: Wind chill temperature = 35.74 + 0.6215T - 35.75V (**0.16) + 0.4275TV(**0.16) where T is the air temperature in Fahrenheit and V is the wind speed in MPH.